sensor_id;sensor_type;location;lat;lon;timestamp;P1;durP1;ratioP1;P2;durP2;ratioP2
15595;SDS011;7898;48.658;9.068;2024-02-26T00:02:01;6.40;;;4.67;;
15595;SDS011;7898;48.658;9.068;2024-02-26T00:04:29;6.73;;;4.73;;
15595;SDS011;7898;48.658;9.068;2024-02-26T00:06:56;6.47;;;4.63;;
15595;SDS011;7898;48.658;9.068;2024-02-26T00:09:23;7.70;;;5.20;;
15595;SDS011;7898;48.658;9.068;2024-02-26T00:11:50;5.93;;;4.73;;
15595;SDS011;7898;48.658;9.068;2024-02-26T00:14:17;6.30;;;4.43;;
15595;SDS011;7898;48.658;9.068;2024-02-26T00:16:44;12.20;;;9.20;;
15595;SDS011;7898;48.658;9.068;2024-02-26T00:19:11;8.00;;;5.57;;
15595;SDS011;7898;48.658;9.068;2024-02-26T00:21:41;6.80;;;5.10;;
15595;SDS011;7898;48.658;9.068;2024-02-26T00:24:08;7.70;;;6.37;;
15595;SDS011;7898;48.658;9.068;2024-02-26T00:26:35;10.23;;;6.60;;
15595;SDS011;7898;48.658;9.068;2024-02-26T00:29:02;7.40;;;5.90;;
15595;SDS011;7898;48.658;9.068;2024-02-26T00:31:29;7.80;;;5.83;;
15595;SDS011;7898;48.658;9.068;2024-02-26T00:33:55;4.90;;;4.40;;
15595;SDS011;7898;48.658;9.068;2024-02-26T00:36:22;7.87;;;5.43;;
15595;SDS011;7898;48.658;9.068;2024-02-26T00:38:51;7.57;;;5.00;;
15595;SDS011;7898;48.658;9.068;2024-02-26T00:41:17;7.13;;;4.60;;
15595;SDS011;7898;48.658;9.068;2024-02-26T00:43:45;8.90;;;6.80;;
15595;SDS011;7898;48.658;9.068;2024-02-26T00:46:12;6.50;;;4.43;;
15595;SDS011;7898;48.658;9.068;2024-02-26T00:48:39;6.40;;;4.57;;
15595;SDS011;7898;48.658;9.068;2024-02-26T00:51:06;9.97;;;4.37;;
15595;SDS011;7898;48.658;9.068;2024-02-26T00:53:33;6.93;;;5.00;;
15595;SDS011;7898;48.658;9.068;2024-02-26T00:56:02;6.60;;;4.73;;
15595;SDS011;7898;48.658;9.068;2024-02-26T00:58:29;6.77;;;4.67;;
15595;SDS011;7898;48.658;9.068;2024-02-26T01:00:56;6.67;;;4.50;;
15595;SDS011;7898;48.658;9.068;2024-02-26T01:03:22;4.90;;;3.93;;
15595;SDS011;7898;48.658;9.068;2024-02-26T01:05:49;4.00;;;3.47;;
15595;SDS011;7898;48.658;9.068;2024-02-26T01:08:16;7.60;;;5.03;;
15595;SDS011;7898;48.658;9.068;2024-02-26T01:10:43;16.97;;;10.23;;
15595;SDS011;7898;48.658;9.068;2024-02-26T01:13:12;13.90;;;9.67;;
15595;SDS011;7898;48.658;9.068;2024-02-26T01:15:39;10.70;;;7.60;;
15595;SDS011;7898;48.658;9.068;2024-02-26T01:18:06;7.53;;;5.20;;
15595;SDS011;7898;48.658;9.068;2024-02-26T01:20:32;11.70;;;5.00;;
15595;SDS011;7898;48.658;9.068;2024-02-26T01:22:59;5.73;;;4.13;;
15595;SDS011;7898;48.658;9.068;2024-02-26T01:25:26;7.00;;;3.30;;
15595;SDS011;7898;48.658;9.068;2024-02-26T01:27:53;5.33;;;3.90;;
15595;SDS011;7898;48.658;9.068;2024-02-26T01:30:22;4.57;;;3.40;;
15595;SDS011;7898;48.658;9.068;2024-02-26T01:32:49;5.23;;;3.40;;
15595;SDS011;7898;48.658;9.068;2024-02-26T01:35:15;3.33;;;2.33;;
15595;SDS011;7898;48.658;9.068;2024-02-26T01:37:42;3.37;;;3.03;;
15595;SDS011;7898;48.658;9.068;2024-02-26T01:40:10;4.00;;;2.63;;
15595;SDS011;7898;48.658;9.068;2024-02-26T01:42:38;3.47;;;2.87;;
15595;SDS011;7898;48.658;9.068;2024-02-26T01:45:06;4.50;;;2.73;;
15595;SDS011;7898;48.658;9.068;2024-02-26T01:47:41;3.97;;;2.57;;
15595;SDS011;7898;48.658;9.068;2024-02-26T01:50:08;4.87;;;2.43;;
15595;SDS011;7898;48.658;9.068;2024-02-26T01:52:35;5.20;;;2.50;;
15595;SDS011;7898;48.658;9.068;2024-02-26T01:55:02;5.57;;;3.77;;
15595;SDS011;7898;48.658;9.068;2024-02-26T01:57:30;3.47;;;2.83;;
15595;SDS011;7898;48.658;9.068;2024-02-26T01:59:57;2.57;;;1.97;;
15595;SDS011;7898;48.658;9.068;2024-02-26T02:02:23;5.20;;;2.27;;
15595;SDS011;7898;48.658;9.068;2024-02-26T02:04:52;2.43;;;1.97;;
15595;SDS011;7898;48.658;9.068;2024-02-26T02:07:20;2.20;;;1.73;;
15595;SDS011;7898;48.658;9.068;2024-02-26T02:09:49;3.00;;;1.73;;
15595;SDS011;7898;48.658;9.068;2024-02-26T02:12:16;3.80;;;2.47;;
15595;SDS011;7898;48.658;9.068;2024-02-26T02:14:43;4.00;;;2.30;;
15595;SDS011;7898;48.658;9.068;2024-02-26T02:17:10;4.93;;;3.00;;
15595;SDS011;7898;48.658;9.068;2024-02-26T02:19:37;3.33;;;2.40;;
15595;SDS011;7898;48.658;9.068;2024-02-26T02:22:05;3.47;;;2.80;;
15595;SDS011;7898;48.658;9.068;2024-02-26T02:24:32;2.33;;;2.13;;
15595;SDS011;7898;48.658;9.068;2024-02-26T02:26:59;3.07;;;2.47;;
15595;SDS011;7898;48.658;9.068;2024-02-26T02:29:26;3.50;;;2.20;;
15595;SDS011;7898;48.658;9.068;2024-02-26T02:31:53;3.53;;;2.50;;
15595;SDS011;7898;48.658;9.068;2024-02-26T02:34:20;3.60;;;2.60;;
15595;SDS011;7898;48.658;9.068;2024-02-26T02:36:48;2.57;;;2.27;;
15595;SDS011;7898;48.658;9.068;2024-02-26T02:39:17;3.87;;;2.07;;
15595;SDS011;7898;48.658;9.068;2024-02-26T02:41:44;3.87;;;2.20;;
15595;SDS011;7898;48.658;9.068;2024-02-26T02:44:11;2.40;;;1.93;;
15595;SDS011;7898;48.658;9.068;2024-02-26T02:46:38;2.10;;;1.80;;
15595;SDS011;7898;48.658;9.068;2024-02-26T02:49:07;2.43;;;1.70;;
15595;SDS011;7898;48.658;9.068;2024-02-26T02:51:35;3.67;;;1.80;;
15595;SDS011;7898;48.658;9.068;2024-02-26T02:54:02;2.13;;;1.90;;
15595;SDS011;7898;48.658;9.068;2024-02-26T02:56:31;2.30;;;1.83;;
15595;SDS011;7898;48.658;9.068;2024-02-26T02:58:58;3.27;;;2.10;;
15595;SDS011;7898;48.658;9.068;2024-02-26T03:01:25;1.73;;;1.50;;
15595;SDS011;7898;48.658;9.068;2024-02-26T03:03:51;1.90;;;1.07;;
15595;SDS011;7898;48.658;9.068;2024-02-26T03:06:18;0.80;;;0.80;;
15595;SDS011;7898;48.658;9.068;2024-02-26T03:08:46;1.10;;;0.93;;
15595;SDS011;7898;48.658;9.068;2024-02-26T03:11:13;2.90;;;0.80;;
15595;SDS011;7898;48.658;9.068;2024-02-26T03:13:42;1.93;;;1.40;;
15595;SDS011;7898;48.658;9.068;2024-02-26T03:16:09;1.37;;;1.00;;
15595;SDS011;7898;48.658;9.068;2024-02-26T03:18:38;2.37;;;0.80;;
15595;SDS011;7898;48.658;9.068;2024-02-26T03:21:05;1.10;;;0.90;;
15595;SDS011;7898;48.658;9.068;2024-02-26T03:23:32;1.10;;;0.80;;
15595;SDS011;7898;48.658;9.068;2024-02-26T03:26:01;1.87;;;1.00;;
15595;SDS011;7898;48.658;9.068;2024-02-26T03:28:28;1.40;;;1.17;;
15595;SDS011;7898;48.658;9.068;2024-02-26T03:30:57;1.33;;;1.20;;
15595;SDS011;7898;48.658;9.068;2024-02-26T03:33:24;1.37;;;1.10;;
15595;SDS011;7898;48.658;9.068;2024-02-26T03:35:51;1.73;;;1.23;;
15595;SDS011;7898;48.658;9.068;2024-02-26T03:38:17;1.77;;;1.20;;
15595;SDS011;7898;48.658;9.068;2024-02-26T03:40:44;1.43;;;1.00;;
15595;SDS011;7898;48.658;9.068;2024-02-26T03:43:11;1.67;;;1.20;;
15595;SDS011;7898;48.658;9.068;2024-02-26T03:45:38;2.80;;;1.20;;
15595;SDS011;7898;48.658;9.068;2024-02-26T03:48:07;3.70;;;1.17;;
15595;SDS011;7898;48.658;9.068;2024-02-26T03:50:34;1.20;;;1.00;;
15595;SDS011;7898;48.658;9.068;2024-02-26T03:53:01;1.43;;;1.00;;
15595;SDS011;7898;48.658;9.068;2024-02-26T03:55:28;1.20;;;1.00;;
15595;SDS011;7898;48.658;9.068;2024-02-26T03:57:55;3.73;;;1.00;;
15595;SDS011;7898;48.658;9.068;2024-02-26T04:00:21;1.10;;;1.00;;
15595;SDS011;7898;48.658;9.068;2024-02-26T04:02:50;1.60;;;1.10;;
15595;SDS011;7898;48.658;9.068;2024-02-26T04:05:18;1.47;;;1.00;;
15595;SDS011;7898;48.658;9.068;2024-02-26T04:07:45;2.23;;;0.90;;
15595;SDS011;7898;48.658;9.068;2024-02-26T04:10:12;1.77;;;0.90;;
15595;SDS011;7898;48.658;9.068;2024-02-26T04:12:40;1.27;;;0.90;;
15595;SDS011;7898;48.658;9.068;2024-02-26T04:15:07;1.17;;;0.90;;
15595;SDS011;7898;48.658;9.068;2024-02-26T04:17:36;1.47;;;1.20;;
15595;SDS011;7898;48.658;9.068;2024-02-26T04:20:04;2.37;;;1.73;;
15595;SDS011;7898;48.658;9.068;2024-02-26T04:22:33;3.60;;;2.07;;
15595;SDS011;7898;48.658;9.068;2024-02-26T04:25:00;2.20;;;1.57;;
15595;SDS011;7898;48.658;9.068;2024-02-26T04:27:28;1.63;;;1.40;;
15595;SDS011;7898;48.658;9.068;2024-02-26T04:29:55;2.73;;;1.53;;
15595;SDS011;7898;48.658;9.068;2024-02-26T04:32:21;2.37;;;1.50;;
15595;SDS011;7898;48.658;9.068;2024-02-26T04:34:48;1.90;;;1.13;;
15595;SDS011;7898;48.658;9.068;2024-02-26T04:37:15;3.10;;;1.30;;
15595;SDS011;7898;48.658;9.068;2024-02-26T04:39:44;1.67;;;1.00;;
15595;SDS011;7898;48.658;9.068;2024-02-26T04:42:11;1.97;;;1.07;;
15595;SDS011;7898;48.658;9.068;2024-02-26T04:44:37;1.40;;;1.03;;
15595;SDS011;7898;48.658;9.068;2024-02-26T04:47:04;1.23;;;1.10;;
15595;SDS011;7898;48.658;9.068;2024-02-26T04:49:32;3.17;;;1.40;;
15595;SDS011;7898;48.658;9.068;2024-02-26T04:52:00;2.50;;;1.10;;
15595;SDS011;7898;48.658;9.068;2024-02-26T04:54:27;1.27;;;1.10;;
15595;SDS011;7898;48.658;9.068;2024-02-26T04:56:55;1.37;;;1.00;;
15595;SDS011;7898;48.658;9.068;2024-02-26T04:59:22;2.13;;;1.17;;
15595;SDS011;7898;48.658;9.068;2024-02-26T05:01:49;1.80;;;1.30;;
15595;SDS011;7898;48.658;9.068;2024-02-26T05:04:16;2.00;;;1.30;;
15595;SDS011;7898;48.658;9.068;2024-02-26T05:06:43;1.40;;;1.20;;
15595;SDS011;7898;48.658;9.068;2024-02-26T05:09:10;2.07;;;1.30;;
15595;SDS011;7898;48.658;9.068;2024-02-26T05:11:37;1.73;;;1.30;;
15595;SDS011;7898;48.658;9.068;2024-02-26T05:14:05;3.53;;;1.10;;
15595;SDS011;7898;48.658;9.068;2024-02-26T05:16:32;2.23;;;1.00;;
15595;SDS011;7898;48.658;9.068;2024-02-26T05:18:59;2.80;;;1.10;;
15595;SDS011;7898;48.658;9.068;2024-02-26T05:21:26;1.90;;;1.50;;
15595;SDS011;7898;48.658;9.068;2024-02-26T05:23:53;2.87;;;2.07;;
15595;SDS011;7898;48.658;9.068;2024-02-26T05:26:20;3.13;;;1.77;;
15595;SDS011;7898;48.658;9.068;2024-02-26T05:28:47;3.57;;;1.90;;
15595;SDS011;7898;48.658;9.068;2024-02-26T05:31:16;2.70;;;1.77;;
15595;SDS011;7898;48.658;9.068;2024-02-26T05:33:43;2.13;;;1.60;;
15595;SDS011;7898;48.658;9.068;2024-02-26T05:36:11;2.47;;;1.90;;
15595;SDS011;7898;48.658;9.068;2024-02-26T05:38:44;2.27;;;1.73;;
15595;SDS011;7898;48.658;9.068;2024-02-26T05:41:12;3.27;;;1.73;;
15595;SDS011;7898;48.658;9.068;2024-02-26T05:43:39;2.10;;;1.57;;
15595;SDS011;7898;48.658;9.068;2024-02-26T05:46:06;3.50;;;2.30;;
15595;SDS011;7898;48.658;9.068;2024-02-26T05:48:34;2.77;;;2.43;;
15595;SDS011;7898;48.658;9.068;2024-02-26T05:51:01;2.57;;;2.03;;
15595;SDS011;7898;48.658;9.068;2024-02-26T05:53:28;1.87;;;1.70;;
15595;SDS011;7898;48.658;9.068;2024-02-26T05:55:55;2.37;;;1.73;;
15595;SDS011;7898;48.658;9.068;2024-02-26T05:58:22;1.77;;;1.33;;
15595;SDS011;7898;48.658;9.068;2024-02-26T06:00:48;2.90;;;1.47;;
15595;SDS011;7898;48.658;9.068;2024-02-26T06:03:15;2.40;;;2.20;;
15595;SDS011;7898;48.658;9.068;2024-02-26T06:05:44;3.13;;;2.50;;
15595;SDS011;7898;48.658;9.068;2024-02-26T06:08:12;2.83;;;2.00;;
15595;SDS011;7898;48.658;9.068;2024-02-26T06:10:39;3.47;;;2.00;;
15595;SDS011;7898;48.658;9.068;2024-02-26T06:13:06;3.13;;;1.90;;
15595;SDS011;7898;48.658;9.068;2024-02-26T06:15:33;2.90;;;2.13;;
15595;SDS011;7898;48.658;9.068;2024-02-26T06:18:00;2.47;;;1.93;;
15595;SDS011;7898;48.658;9.068;2024-02-26T06:20:27;2.80;;;2.40;;
15595;SDS011;7898;48.658;9.068;2024-02-26T06:22:55;2.43;;;2.23;;
15595;SDS011;7898;48.658;9.068;2024-02-26T06:25:22;2.33;;;2.00;;
15595;SDS011;7898;48.658;9.068;2024-02-26T06:27:50;2.43;;;2.00;;
15595;SDS011;7898;48.658;9.068;2024-02-26T06:30:17;3.17;;;2.27;;
15595;SDS011;7898;48.658;9.068;2024-02-26T06:32:44;3.27;;;2.47;;
15595;SDS011;7898;48.658;9.068;2024-02-26T06:35:11;3.70;;;2.97;;
15595;SDS011;7898;48.658;9.068;2024-02-26T06:37:40;7.00;;;5.00;;
15595;SDS011;7898;48.658;9.068;2024-02-26T06:40:08;6.20;;;4.60;;
15595;SDS011;7898;48.658;9.068;2024-02-26T06:42:35;10.33;;;7.57;;
15595;SDS011;7898;48.658;9.068;2024-02-26T06:45:03;10.80;;;6.37;;
15595;SDS011;7898;48.658;9.068;2024-02-26T06:47:32;8.80;;;6.47;;
15595;SDS011;7898;48.658;9.068;2024-02-26T06:50:02;7.10;;;5.60;;
15595;SDS011;7898;48.658;9.068;2024-02-26T06:52:29;7.97;;;5.90;;
15595;SDS011;7898;48.658;9.068;2024-02-26T06:54:56;6.10;;;4.60;;
15595;SDS011;7898;48.658;9.068;2024-02-26T06:57:24;6.20;;;5.00;;
15595;SDS011;7898;48.658;9.068;2024-02-26T06:59:51;6.07;;;3.80;;
15595;SDS011;7898;48.658;9.068;2024-02-26T07:02:18;6.17;;;4.53;;
15595;SDS011;7898;48.658;9.068;2024-02-26T07:04:45;6.07;;;4.00;;
15595;SDS011;7898;48.658;9.068;2024-02-26T07:07:12;8.97;;;4.30;;
15595;SDS011;7898;48.658;9.068;2024-02-26T07:09:41;6.20;;;4.57;;
15595;SDS011;7898;48.658;9.068;2024-02-26T07:12:09;5.23;;;3.10;;
15595;SDS011;7898;48.658;9.068;2024-02-26T07:14:37;4.47;;;3.27;;
15595;SDS011;7898;48.658;9.068;2024-02-26T07:17:04;4.27;;;3.43;;
15595;SDS011;7898;48.658;9.068;2024-02-26T07:19:31;4.33;;;3.93;;
15595;SDS011;7898;48.658;9.068;2024-02-26T07:21:58;48.33;;;17.70;;
15595;SDS011;7898;48.658;9.068;2024-02-26T07:24:26;100.37;;;35.17;;
15595;SDS011;7898;48.658;9.068;2024-02-26T07:26:53;66.33;;;26.27;;
15595;SDS011;7898;48.658;9.068;2024-02-26T07:29:22;32.03;;;15.67;;
15595;SDS011;7898;48.658;9.068;2024-02-26T07:31:58;18.07;;;8.60;;
15595;SDS011;7898;48.658;9.068;2024-02-26T07:34:25;13.10;;;7.73;;
15595;SDS011;7898;48.658;9.068;2024-02-26T07:36:54;4.73;;;4.23;;
15595;SDS011;7898;48.658;9.068;2024-02-26T07:39:21;3.73;;;3.40;;
15595;SDS011;7898;48.658;9.068;2024-02-26T07:41:47;4.50;;;3.10;;
15595;SDS011;7898;48.658;9.068;2024-02-26T07:44:16;3.53;;;2.50;;
15595;SDS011;7898;48.658;9.068;2024-02-26T07:46:43;3.00;;;2.40;;
15595;SDS011;7898;48.658;9.068;2024-02-26T07:49:12;2.17;;;1.90;;
15595;SDS011;7898;48.658;9.068;2024-02-26T07:51:38;3.33;;;2.00;;
15595;SDS011;7898;48.658;9.068;2024-02-26T07:54:05;1.90;;;1.70;;
15595;SDS011;7898;48.658;9.068;2024-02-26T07:56:32;3.10;;;1.87;;
15595;SDS011;7898;48.658;9.068;2024-02-26T07:58:59;3.00;;;1.70;;
15595;SDS011;7898;48.658;9.068;2024-02-26T08:01:26;2.07;;;1.80;;
15595;SDS011;7898;48.658;9.068;2024-02-26T08:03:53;1.80;;;1.60;;
15595;SDS011;7898;48.658;9.068;2024-02-26T08:06:22;1.80;;;1.60;;
15595;SDS011;7898;48.658;9.068;2024-02-26T08:08:49;2.03;;;1.40;;
15595;SDS011;7898;48.658;9.068;2024-02-26T08:11:16;2.47;;;1.70;;
15595;SDS011;7898;48.658;9.068;2024-02-26T08:13:43;1.97;;;1.43;;
15595;SDS011;7898;48.658;9.068;2024-02-26T08:16:10;1.83;;;1.33;;
15595;SDS011;7898;48.658;9.068;2024-02-26T08:18:38;1.53;;;1.33;;
15595;SDS011;7898;48.658;9.068;2024-02-26T08:21:05;2.33;;;1.70;;
15595;SDS011;7898;48.658;9.068;2024-02-26T08:23:33;2.30;;;1.40;;
15595;SDS011;7898;48.658;9.068;2024-02-26T08:26:00;1.97;;;1.50;;
15595;SDS011;7898;48.658;9.068;2024-02-26T08:28:29;1.87;;;1.60;;
15595;SDS011;7898;48.658;9.068;2024-02-26T08:30:56;1.70;;;1.40;;
15595;SDS011;7898;48.658;9.068;2024-02-26T08:33:23;1.40;;;1.30;;
15595;SDS011;7898;48.658;9.068;2024-02-26T08:35:50;3.33;;;1.83;;
15595;SDS011;7898;48.658;9.068;2024-02-26T08:38:17;1.93;;;1.60;;
15595;SDS011;7898;48.658;9.068;2024-02-26T08:40:45;2.03;;;1.43;;
15595;SDS011;7898;48.658;9.068;2024-02-26T08:43:12;2.53;;;1.80;;
15595;SDS011;7898;48.658;9.068;2024-02-26T08:45:39;1.77;;;1.50;;
15595;SDS011;7898;48.658;9.068;2024-02-26T08:48:07;1.97;;;1.53;;
15595;SDS011;7898;48.658;9.068;2024-02-26T08:50:33;2.40;;;1.63;;
15595;SDS011;7898;48.658;9.068;2024-02-26T08:53:01;1.60;;;1.37;;
15595;SDS011;7898;48.658;9.068;2024-02-26T08:55:29;2.00;;;1.60;;
15595;SDS011;7898;48.658;9.068;2024-02-26T08:57:57;2.13;;;1.60;;
15595;SDS011;7898;48.658;9.068;2024-02-26T09:00:24;1.87;;;1.20;;
15595;SDS011;7898;48.658;9.068;2024-02-26T09:02:51;1.87;;;1.50;;
15595;SDS011;7898;48.658;9.068;2024-02-26T09:05:17;1.37;;;1.23;;
15595;SDS011;7898;48.658;9.068;2024-02-26T09:07:44;3.13;;;1.43;;
15595;SDS011;7898;48.658;9.068;2024-02-26T09:10:11;1.37;;;1.10;;
15595;SDS011;7898;48.658;9.068;2024-02-26T09:12:38;2.23;;;2.00;;
15595;SDS011;7898;48.658;9.068;2024-02-26T09:15:07;1.47;;;1.37;;
15595;SDS011;7898;48.658;9.068;2024-02-26T09:17:35;2.27;;;1.53;;
15595;SDS011;7898;48.658;9.068;2024-02-26T09:20:02;2.73;;;1.30;;
15595;SDS011;7898;48.658;9.068;2024-02-26T09:22:30;1.70;;;1.60;;
15595;SDS011;7898;48.658;9.068;2024-02-26T09:24:58;2.33;;;1.40;;
15595;SDS011;7898;48.658;9.068;2024-02-26T09:27:25;1.60;;;1.40;;
15595;SDS011;7898;48.658;9.068;2024-02-26T09:29:52;1.97;;;1.30;;
15595;SDS011;7898;48.658;9.068;2024-02-26T09:32:20;1.70;;;1.40;;
15595;SDS011;7898;48.658;9.068;2024-02-26T09:34:50;2.47;;;1.60;;
15595;SDS011;7898;48.658;9.068;2024-02-26T09:37:16;2.70;;;2.00;;
15595;SDS011;7898;48.658;9.068;2024-02-26T09:39:43;6.67;;;4.97;;
15595;SDS011;7898;48.658;9.068;2024-02-26T09:42:11;3.23;;;2.60;;
15595;SDS011;7898;48.658;9.068;2024-02-26T09:44:40;2.50;;;2.30;;
15595;SDS011;7898;48.658;9.068;2024-02-26T09:47:08;10.97;;;2.30;;
15595;SDS011;7898;48.658;9.068;2024-02-26T09:49:39;5.37;;;1.30;;
15595;SDS011;7898;48.658;9.068;2024-02-26T09:52:08;1.83;;;0.97;;
15595;SDS011;7898;48.658;9.068;2024-02-26T09:54:35;15.57;;;2.50;;
15595;SDS011;7898;48.658;9.068;2024-02-26T09:57:02;1.90;;;1.50;;
15595;SDS011;7898;48.658;9.068;2024-02-26T09:59:34;1.37;;;1.27;;
15595;SDS011;7898;48.658;9.068;2024-02-26T10:02:06;1.93;;;1.63;;
15595;SDS011;7898;48.658;9.068;2024-02-26T10:04:35;2.10;;;1.70;;
15595;SDS011;7898;48.658;9.068;2024-02-26T10:07:04;2.07;;;1.33;;
15595;SDS011;7898;48.658;9.068;2024-02-26T10:09:35;1.38;;;1.15;;
15595;SDS011;7898;48.658;9.068;2024-02-26T10:12:03;2.53;;;1.10;;
15595;SDS011;7898;48.658;9.068;2024-02-26T10:14:30;1.13;;;1.03;;
15595;SDS011;7898;48.658;9.068;2024-02-26T10:16:57;2.03;;;1.10;;
15595;SDS011;7898;48.658;9.068;2024-02-26T10:19:26;1.83;;;1.40;;
15595;SDS011;7898;48.658;9.068;2024-02-26T10:21:56;2.30;;;1.05;;
15595;SDS011;7898;48.658;9.068;2024-02-26T10:24:25;1.48;;;1.35;;
15595;SDS011;7898;48.658;9.068;2024-02-26T10:26:52;1.63;;;1.27;;
15595;SDS011;7898;48.658;9.068;2024-02-26T10:29:21;1.00;;;0.90;;
15595;SDS011;7898;48.658;9.068;2024-02-26T10:31:50;2.00;;;1.00;;
15595;SDS011;7898;48.658;9.068;2024-02-26T10:34:17;1.15;;;1.00;;
15595;SDS011;7898;48.658;9.068;2024-02-26T10:36:44;1.80;;;1.30;;
15595;SDS011;7898;48.658;9.068;2024-02-26T10:39:11;3.33;;;2.35;;
15595;SDS011;7898;48.658;9.068;2024-02-26T10:41:41;2.05;;;1.45;;
15595;SDS011;7898;48.658;9.068;2024-02-26T10:44:09;1.92;;;1.63;;
15595;SDS011;7898;48.658;9.068;2024-02-26T10:46:37;2.72;;;1.88;;
15595;SDS011;7898;48.658;9.068;2024-02-26T10:49:04;2.83;;;2.05;;
15595;SDS011;7898;48.658;9.068;2024-02-26T10:51:32;2.00;;;1.73;;
15595;SDS011;7898;48.658;9.068;2024-02-26T10:54:02;2.03;;;1.30;;
15595;SDS011;7898;48.658;9.068;2024-02-26T10:56:33;2.40;;;1.70;;
15595;SDS011;7898;48.658;9.068;2024-02-26T10:59:04;1.70;;;1.27;;
15595;SDS011;7898;48.658;9.068;2024-02-26T11:01:33;2.42;;;1.35;;
15595;SDS011;7898;48.658;9.068;2024-02-26T11:04:03;4.90;;;1.48;;
15595;SDS011;7898;48.658;9.068;2024-02-26T11:06:31;3.33;;;1.57;;
15595;SDS011;7898;48.658;9.068;2024-02-26T11:09:00;2.90;;;1.57;;
15595;SDS011;7898;48.658;9.068;2024-02-26T11:11:28;3.20;;;1.40;;
15595;SDS011;7898;48.658;9.068;2024-02-26T11:13:56;1.67;;;1.50;;
15595;SDS011;7898;48.658;9.068;2024-02-26T11:16:27;4.27;;;1.30;;
15595;SDS011;7898;48.658;9.068;2024-02-26T11:18:55;2.87;;;1.37;;
15595;SDS011;7898;48.658;9.068;2024-02-26T11:21:22;2.83;;;1.63;;
15595;SDS011;7898;48.658;9.068;2024-02-26T11:23:55;2.10;;;1.58;;
15595;SDS011;7898;48.658;9.068;2024-02-26T11:26:22;1.23;;;1.03;;
15595;SDS011;7898;48.658;9.068;2024-02-26T11:28:51;2.60;;;1.45;;
15595;SDS011;7898;48.658;9.068;2024-02-26T11:31:19;3.05;;;1.45;;
15595;SDS011;7898;48.658;9.068;2024-02-26T11:33:53;1.63;;;1.20;;
15595;SDS011;7898;48.658;9.068;2024-02-26T11:36:22;1.48;;;1.25;;
15595;SDS011;7898;48.658;9.068;2024-02-26T11:38:50;2.55;;;1.60;;
15595;SDS011;7898;48.658;9.068;2024-02-26T11:41:18;2.35;;;1.70;;
15595;SDS011;7898;48.658;9.068;2024-02-26T11:43:51;2.53;;;1.42;;
15595;SDS011;7898;48.658;9.068;2024-02-26T11:46:25;3.08;;;1.65;;
15595;SDS011;7898;48.658;9.068;2024-02-26T11:48:55;2.20;;;1.40;;
15595;SDS011;7898;48.658;9.068;2024-02-26T11:51:27;3.38;;;1.23;;
15595;SDS011;7898;48.658;9.068;2024-02-26T11:53:54;2.22;;;1.42;;
15595;SDS011;7898;48.658;9.068;2024-02-26T11:56:24;1.60;;;1.25;;
15595;SDS011;7898;48.658;9.068;2024-02-26T11:58:57;5.65;;;1.70;;
15595;SDS011;7898;48.658;9.068;2024-02-26T12:04:18;2.78;;;1.50;;
15595;SDS011;7898;48.658;9.068;2024-02-26T12:06:51;3.70;;;1.48;;
15595;SDS011;7898;48.658;9.068;2024-02-26T12:09:35;2.92;;;1.52;;
15595;SDS011;7898;48.658;9.068;2024-02-26T12:12:03;2.67;;;1.80;;
15595;SDS011;7898;48.658;9.068;2024-02-26T12:14:32;1.98;;;1.67;;
15595;SDS011;7898;48.658;9.068;2024-02-26T12:17:00;2.17;;;1.50;;
15595;SDS011;7898;48.658;9.068;2024-02-26T12:19:32;2.60;;;1.60;;
15595;SDS011;7898;48.658;9.068;2024-02-26T12:22:00;3.75;;;1.73;;
15595;SDS011;7898;48.658;9.068;2024-02-26T12:24:29;2.72;;;1.58;;
15595;SDS011;7898;48.658;9.068;2024-02-26T12:26:56;3.10;;;1.60;;
15595;SDS011;7898;48.658;9.068;2024-02-26T12:29:23;2.75;;;1.67;;
15595;SDS011;7898;48.658;9.068;2024-02-26T12:31:50;1.73;;;1.42;;
15595;SDS011;7898;48.658;9.068;2024-02-26T12:34:17;1.70;;;1.38;;
15595;SDS011;7898;48.658;9.068;2024-02-26T12:36:46;1.52;;;1.42;;
15595;SDS011;7898;48.658;9.068;2024-02-26T12:39:13;1.48;;;1.38;;
15595;SDS011;7898;48.658;9.068;2024-02-26T12:41:40;2.53;;;1.42;;
15595;SDS011;7898;48.658;9.068;2024-02-26T12:44:11;1.58;;;1.27;;
15595;SDS011;7898;48.658;9.068;2024-02-26T12:46:38;3.03;;;1.30;;
15595;SDS011;7898;48.658;9.068;2024-02-26T12:49:05;2.00;;;1.27;;
15595;SDS011;7898;48.658;9.068;2024-02-26T12:51:33;3.60;;;1.23;;
15595;SDS011;7898;48.658;9.068;2024-02-26T12:54:02;2.70;;;1.38;;
15595;SDS011;7898;48.658;9.068;2024-02-26T12:56:29;1.92;;;1.27;;
15595;SDS011;7898;48.658;9.068;2024-02-26T12:58:57;1.95;;;1.17;;
15595;SDS011;7898;48.658;9.068;2024-02-26T13:01:25;4.05;;;1.33;;
15595;SDS011;7898;48.658;9.068;2024-02-26T13:03:52;2.13;;;1.10;;
15595;SDS011;7898;48.658;9.068;2024-02-26T13:06:20;1.73;;;1.05;;
15595;SDS011;7898;48.658;9.068;2024-02-26T13:08:47;2.13;;;1.35;;
15595;SDS011;7898;48.658;9.068;2024-02-26T13:11:16;1.42;;;1.10;;
15595;SDS011;7898;48.658;9.068;2024-02-26T13:13:47;1.42;;;1.25;;
15595;SDS011;7898;48.658;9.068;2024-02-26T13:16:15;1.48;;;0.95;;
15595;SDS011;7898;48.658;9.068;2024-02-26T13:18:42;1.58;;;0.90;;
15595;SDS011;7898;48.658;9.068;2024-02-26T13:21:10;1.63;;;1.02;;
15595;SDS011;7898;48.658;9.068;2024-02-26T13:23:38;1.10;;;0.90;;
15595;SDS011;7898;48.658;9.068;2024-02-26T13:26:06;1.08;;;0.80;;
15595;SDS011;7898;48.658;9.068;2024-02-26T13:28:35;0.82;;;0.50;;
15595;SDS011;7898;48.658;9.068;2024-02-26T13:31:02;0.60;;;0.47;;
15595;SDS011;7898;48.658;9.068;2024-02-26T13:33:32;5.70;;;4.82;;
15595;SDS011;7898;48.658;9.068;2024-02-26T13:36:00;3.70;;;2.55;;
15595;SDS011;7898;48.658;9.068;2024-02-26T13:38:27;4.63;;;2.50;;
15595;SDS011;7898;48.658;9.068;2024-02-26T13:40:54;78.53;;;44.13;;
15595;SDS011;7898;48.658;9.068;2024-02-26T13:43:21;52.53;;;26.15;;
15595;SDS011;7898;48.658;9.068;2024-02-26T13:45:50;78.38;;;39.38;;
15595;SDS011;7898;48.658;9.068;2024-02-26T13:48:17;68.85;;;35.03;;
15595;SDS011;7898;48.658;9.068;2024-02-26T13:50:44;4.82;;;3.15;;
15595;SDS011;7898;48.658;9.068;2024-02-26T13:53:11;2.20;;;2.00;;
15595;SDS011;7898;48.658;9.068;2024-02-26T13:55:39;1.45;;;1.35;;
15595;SDS011;7898;48.658;9.068;2024-02-26T13:58:07;0.80;;;0.60;;
15595;SDS011;7898;48.658;9.068;2024-02-26T14:00:37;0.52;;;0.30;;
15595;SDS011;7898;48.658;9.068;2024-02-26T14:03:05;0.63;;;0.55;;
15595;SDS011;7898;48.658;9.068;2024-02-26T14:05:32;2.40;;;0.45;;
15595;SDS011;7898;48.658;9.068;2024-02-26T14:07:59;11.57;;;0.93;;
15595;SDS011;7898;48.658;9.068;2024-02-26T14:10:26;1.67;;;1.48;;
15595;SDS011;7898;48.658;9.068;2024-02-26T14:12:53;0.60;;;0.30;;
15595;SDS011;7898;48.658;9.068;2024-02-26T14:15:20;0.40;;;0.35;;
15595;SDS011;7898;48.658;9.068;2024-02-26T14:17:47;1.55;;;0.57;;
15595;SDS011;7898;48.658;9.068;2024-02-26T14:20:20;1.02;;;0.93;;
15595;SDS011;7898;48.658;9.068;2024-02-26T14:22:48;1.15;;;1.00;;
15595;SDS011;7898;48.658;9.068;2024-02-26T14:25:15;0.40;;;0.38;;
15595;SDS011;7898;48.658;9.068;2024-02-26T14:27:42;0.40;;;0.30;;
15595;SDS011;7898;48.658;9.068;2024-02-26T14:30:09;1.98;;;0.70;;
15595;SDS011;7898;48.658;9.068;2024-02-26T14:32:38;0.40;;;0.40;;
15595;SDS011;7898;48.658;9.068;2024-02-26T14:35:05;0.25;;;0.25;;
15595;SDS011;7898;48.658;9.068;2024-02-26T14:37:35;0.17;;;0.10;;
15595;SDS011;7898;48.658;9.068;2024-02-26T14:40:02;1.08;;;0.28;;
15595;SDS011;7898;48.658;9.068;2024-02-26T14:42:30;0.30;;;0.20;;
15595;SDS011;7898;48.658;9.068;2024-02-26T14:44:57;0.20;;;0.13;;
15595;SDS011;7898;48.658;9.068;2024-02-26T14:47:24;0.20;;;0.20;;
15595;SDS011;7898;48.658;9.068;2024-02-26T14:49:51;0.30;;;0.30;;
15595;SDS011;7898;48.658;9.068;2024-02-26T14:52:18;0.47;;;0.40;;
15595;SDS011;7898;48.658;9.068;2024-02-26T14:54:47;0.47;;;0.40;;
15595;SDS011;7898;48.658;9.068;2024-02-26T14:57:16;0.30;;;0.30;;
15595;SDS011;7898;48.658;9.068;2024-02-26T14:59:43;0.35;;;0.30;;
15595;SDS011;7898;48.658;9.068;2024-02-26T15:02:10;0.60;;;0.50;;
15595;SDS011;7898;48.658;9.068;2024-02-26T15:04:37;0.50;;;0.40;;
15595;SDS011;7898;48.658;9.068;2024-02-26T15:07:04;0.22;;;0.20;;